Time;durP1;ratioP1;P1;durP2;ratioP2;P2;SDS_P1;SDS_P2;PMS_P1;PMS_P2;Temp;Humidity;BMP_temperature;BMP_pressure;BME280_temperature;BME280_humidity;BME280_pressure;Samples;Min_cycle;Max_cycle;Signal;HPM_P1;HPM_P2
2024/01/01 00:03:44;;;;;;;11.85;8.38;;;;;;;7.09;95.60;100790.75;10412070;28;20041;-74
2024/01/01 00:08:45;;;;;;;11.82;9.02;;;;;;;7.11;95.81;100816.19;10413614;28;20087;-73
2024/01/01 00:13:46;;;;;;;13.10;10.63;;;;;;;6.84;96.62;100802.59;10411910;28;20486;-73
2024/01/01 00:18:47;;;;;;;15.68;10.70;;;;;;;6.82;97.11;100815.13;10411947;28;20065;-73
2024/01/01 00:23:48;;;;;;;18.40;11.32;;;;;;;6.76;97.65;100820.94;10412446;28;20049;-73
2024/01/01 00:28:48;;;;;;;16.40;11.85;;;;;;;6.71;98.90;100825.75;10411108;28;20048;-73
2024/01/01 00:33:49;;;;;;;17.48;12.48;;;;;;;6.65;98.98;100828.09;10420018;28;20167;-73
2024/01/01 00:38:51;;;;;;;21.67;16.02;;;;;;;6.54;99.64;100831.63;10420174;28;20066;-73
2024/01/01 00:43:52;;;;;;;26.83;19.55;;;;;;;6.10;100.00;100759.69;10418828;28;20164;-74
2024/01/01 00:48:52;;;;;;;26.75;18.45;;;;;;;6.26;100.00;100820.75;10420482;28;20366;-75
2024/01/01 00:53:53;;;;;;;23.95;17.42;;;;;;;6.20;100.00;100833.63;10419300;28;20049;-72
2024/01/01 00:58:54;;;;;;;25.13;17.05;;;;;;;6.14;100.00;100856.09;10419049;28;20129;-73
2024/01/01 01:03:55;;;;;;;25.38;17.70;;;;;;;6.07;100.00;100857.53;10419020;28;20056;-73
2024/01/01 01:08:55;;;;;;;23.80;17.08;;;;;;;5.99;100.00;100858.19;10418199;28;20061;-73
2024/01/01 01:13:56;;;;;;;26.65;17.83;;;;;;;5.89;100.00;100857.22;10418908;28;20091;-74
2024/01/01 01:18:59;;;;;;;24.00;18.25;;;;;;;5.82;100.00;100872.69;10417604;28;20092;-73
2024/01/01 01:24:00;;;;;;;27.58;18.20;;;;;;;5.79;100.00;100872.94;10418186;28;20103;-73
2024/01/01 01:29:01;;;;;;;24.88;17.85;;;;;;;5.63;100.00;100861.97;10418070;28;20558;-74
2024/01/01 01:34:02;;;;;;;28.05;18.05;;;;;;;5.69;100.00;100875.50;10417340;28;20103;-73
2024/01/01 01:39:03;;;;;;;25.63;17.38;;;;;;;5.81;100.00;100886.84;10417877;28;20060;-73
2024/01/01 01:44:04;;;;;;;23.77;16.48;;;;;;;5.69;100.00;100872.03;10416827;28;20061;-74
2024/01/01 01:49:05;;;;;;;26.20;17.65;;;;;;;5.82;100.00;100908.78;10417376;28;20378;-73
2024/01/01 01:54:06;;;;;;;46.70;25.02;;;;;;;5.51;100.00;100847.16;10417225;28;20042;-73
2024/01/01 01:59:08;;;;;;;32.90;19.40;;;;;;;5.89;100.00;100902.03;10416741;28;20045;-73
2024/01/01 02:04:08;;;;;;;26.17;17.42;;;;;;;5.65;100.00;100870.56;10416670;28;20563;-73
2024/01/01 02:09:09;;;;;;;30.85;19.42;;;;;;;5.25;100.00;100811.38;10415680;28;20095;-73
2024/01/01 02:14:12;;;;;;;25.40;17.73;;;;;;;5.58;100.00;100874.69;10416239;28;20460;-73
2024/01/01 02:19:26;;;;;;;23.83;17.58;;;;;;;5.94;100.00;100924.47;10415795;28;20041;-73
2024/01/01 02:24:27;;;;;;;24.55;17.25;;;;;;;5.80;100.00;100908.03;10416001;28;20102;-73
2024/01/01 02:29:28;;;;;;;26.40;17.88;;;;;;;5.84;100.00;100939.34;10415578;28;20045;-74
2024/01/01 02:34:28;;;;;;;26.98;18.05;;;;;;;5.10;100.00;100814.38;10414897;28;20837;-73
2024/01/01 02:39:29;;;;;;;26.92;18.05;;;;;;;5.71;100.00;100917.53;10414591;28;20088;-73
2024/01/01 02:44:30;;;;;;;28.65;17.92;;;;;;;5.74;100.00;100941.00;10414964;28;20519;-73
2024/01/01 02:49:31;;;;;;;25.15;17.20;;;;;;;5.65;100.00;100939.09;10414225;28;20042;-73
2024/01/01 02:54:32;;;;;;;24.35;16.50;;;;;;;5.61;100.00;100938.50;10413904;28;20045;-73
2024/01/01 02:59:35;;;;;;;23.85;15.65;;;;;;;5.63;100.00;100946.31;10413917;28;20404;-74
2024/01/01 03:04:36;;;;;;;22.97;16.17;;;;;;;5.60;100.00;100947.38;10414598;28;20058;-73
2024/01/01 03:09:37;;;;;;;23.23;16.25;;;;;;;5.14;100.00;100887.75;10413565;28;20071;-73
2024/01/01 03:14:37;;;;;;;24.27;15.85;;;;;;;5.54;100.00;100960.22;10413927;28;20038;-73
2024/01/01 03:19:38;;;;;;;23.20;15.52;;;;;;;5.45;100.00;100964.41;10413976;28;20037;-73
2024/01/01 03:24:39;;;;;;;21.38;14.80;;;;;;;5.20;100.00;100937.31;10413354;28;20099;-74
2024/01/01 03:29:40;;;;;;;21.85;15.32;;;;;;;5.02;100.00;100905.34;10413556;28;20042;-73
2024/01/01 03:34:42;;;;;;;22.70;14.65;;;;;;;5.41;100.00;100982.22;10412665;28;20045;-73
2024/01/01 03:39:43;;;;;;;22.85;14.23;;;;;;;5.49;100.00;100985.13;10412791;28;20115;-73
2024/01/01 03:44:44;;;;;;;23.83;13.73;;;;;;;5.37;100.00;100979.97;10412446;28;20053;-74
2024/01/01 03:49:44;;;;;;;20.48;13.80;;;;;;;5.35;100.00;100993.25;10412125;28;20046;-73
2024/01/01 03:54:45;;;;;;;24.63;13.77;;;;;;;5.34;100.00;101014.47;10413056;28;20041;-73
2024/01/01 03:59:46;;;;;;;24.15;13.85;;;;;;;4.98;100.00;100958.38;10403959;28;20452;-73
2024/01/01 04:04:47;;;;;;;22.02;14.43;;;;;;;5.07;100.00;100975.25;10416453;28;20144;-73
2024/01/01 04:09:48;;;;;;;24.35;14.63;;;;;;;5.45;100.00;101025.84;10419443;28;20462;-73
2024/01/01 04:14:49;;;;;;;23.50;15.13;;;;;;;5.40;100.00;101014.81;10420818;28;20037;-73
2024/01/01 04:19:50;;;;;;;22.83;14.52;;;;;;;4.78;100.00;100923.00;10420475;28;20099;-73
2024/01/01 04:24:50;;;;;;;26.60;13.98;;;;;;;5.35;100.00;101013.50;10420454;28;20139;-73
2024/01/01 04:29:51;;;;;;;21.88;13.35;;;;;;;5.42;99.55;101020.81;10419901;28;20037;-73
2024/01/01 04:34:52;;;;;;;24.42;12.38;;;;;;;5.37;99.82;101033.50;10419794;28;20061;-73
2024/01/01 04:39:53;;;;;;;19.08;11.65;;;;;;;5.38;99.97;101037.78;10419312;28;20103;-73
2024/01/01 04:44:54;;;;;;;20.02;12.77;;;;;;;4.85;99.36;100983.97;10418989;28;20128;-73
2024/01/01 04:49:54;;;;;;;22.15;12.02;;;;;;;5.07;99.04;101033.19;10419798;28;20037;-74
2024/01/01 04:54:56;;;;;;;20.42;11.88;;;;;;;5.08;99.85;101062.03;10420047;28;20128;-73
2024/01/01 04:59:57;;;;;;;20.40;12.27;;;;;;;4.92;99.72;101070.25;10418988;28;20029;-73
2024/01/01 05:04:58;;;;;;;18.80;12.23;;;;;;;4.76;99.90;101073.19;10418486;28;20493;-74
2024/01/01 05:09:59;;;;;;;18.50;12.40;;;;;;;4.51;100.00;101073.28;10418986;28;20044;-73
2024/01/01 05:14:59;;;;;;;22.65;11.95;;;;;;;4.08;100.00;101029.84;10417402;28;20565;-73
2024/01/01 05:20:00;;;;;;;48.47;14.32;;;;;;;4.28;100.00;101077.56;10418313;28;20041;-74
2024/01/01 05:25:01;;;;;;;30.13;13.88;;;;;;;4.04;100.00;101067.00;10417642;28;20045;-73
2024/01/01 05:30:04;;;;;;;17.73;11.20;;;;;;;3.88;100.00;101088.25;10418231;28;20120;-73
2024/01/01 05:35:06;;;;;;;24.40;12.00;;;;;;;3.73;100.00;101065.66;10417399;28;20053;-72
2024/01/01 05:40:07;;;;;;;20.42;12.48;;;;;;;3.63;100.00;101091.72;10417265;28;20037;-73
2024/01/01 05:45:08;;;;;;;24.90;11.98;;;;;;;3.29;100.00;101048.50;10417368;28;20042;-74
2024/01/01 05:50:09;;;;;;;21.70;12.45;;;;;;;3.48;100.00;101075.22;10417731;28;20041;-74
2024/01/01 05:55:10;;;;;;;20.40;11.98;;;;;;;3.56;100.00;101101.84;10417073;28;20033;-75
2024/01/01 06:00:12;;;;;;;32.05;12.32;;;;;;;3.59;100.00;101093.75;10415049;28;20517;-73
2024/01/01 06:05:13;;;;;;;20.10;11.77;;;;;;;3.73;100.00;101084.88;10409552;28;20057;-74
2024/01/01 06:10:14;;;;;;;22.73;11.52;;;;;;;3.87;100.00;101113.69;10417320;28;20566;-74
2024/01/01 06:15:15;;;;;;;28.52;11.93;;;;;;;3.75;100.00;101090.91;10414948;28;20120;-74
2024/01/01 06:20:15;;;;;;;24.50;12.38;;;;;;;3.71;100.00;101057.03;10416483;28;20563;-73
2024/01/01 06:25:17;;;;;;;21.17;12.02;;;;;;;4.15;100.00;101050.44;10415728;28;20551;-74
2024/01/01 06:30:18;;;;;;;26.58;15.38;;;;;;;4.61;99.83;101049.75;10414354;28;20049;-74
2024/01/01 06:35:19;;;;;;;42.72;15.95;;;;;;;5.06;100.00;101065.75;10419172;28;20444;-75
2024/01/01 06:40:20;;;;;;;20.88;14.02;;;;;;;5.57;98.64;101107.56;10414907;28;20047;-74
2024/01/01 06:45:21;;;;;;;29.52;13.35;;;;;;;5.83;98.00;101079.19;10415444;28;20052;-74
2024/01/01 06:50:23;;;;;;;18.23;12.68;;;;;;;6.26;97.31;101104.88;10414080;28;20037;-73
2024/01/01 06:55:24;;;;;;;23.27;14.30;;;;;;;6.25;96.16;101053.91;10414761;28;20510;-73
2024/01/01 07:00:24;;;;;;;23.15;14.18;;;;;;;6.86;94.89;101111.47;10414540;28;20045;-73
2024/01/01 07:05:28;;;;;;;18.25;12.13;;;;;;;7.02;93.29;101116.31;10412860;28;20198;-75
2024/01/01 07:10:29;;;;;;;21.10;13.25;;;;;;;7.17;92.00;101119.50;10414208;28;20038;-73
2024/01/01 07:15:29;;;;;;;16.75;12.68;;;;;;;7.27;91.67;101123.09;10414013;28;20128;-74
2024/01/01 07:20:30;;;;;;;21.42;13.77;;;;;;;7.32;90.52;101119.06;10414160;28;20038;-74
2024/01/01 07:25:31;;;;;;;20.55;13.55;;;;;;;7.65;89.94;101119.84;10414017;28;20067;-74
2024/01/01 07:30:32;;;;;;;23.00;13.25;;;;;;;7.75;88.88;101085.53;10411571;28;20052;-72
2024/01/01 07:35:33;;;;;;;17.58;12.63;;;;;;;8.14;88.25;101109.53;10409044;28;20061;-74
2024/01/01 07:40:33;;;;;;;20.27;13.00;;;;;;;8.23;87.48;101112.19;10409697;28;20049;-74
2024/01/01 07:45:34;;;;;;;17.08;11.43;;;;;;;8.28;87.20;101100.38;10411022;28;20409;-74
2024/01/01 07:50:36;;;;;;;17.75;11.50;;;;;;;8.16;86.91;101092.50;10411247;28;20077;-73
2024/01/01 07:55:37;;;;;;;22.05;12.75;;;;;;;8.03;86.85;101044.28;10402486;28;20103;-72
2024/01/01 08:00:39;;;;;;;18.42;13.15;;;;;;;8.32;86.81;101078.78;10400705;28;20041;-73
2024/01/01 08:05:39;;;;;;;18.38;12.93;;;;;;;8.33;86.21;101061.94;10392162;28;20061;-76
2024/01/01 08:10:43;;;;;;;20.10;12.70;;;;;;;8.26;85.50;101028.22;10390644;28;20099;-74
2024/01/01 08:15:43;;;;;;;21.13;12.20;;;;;;;8.74;85.39;101073.31;10387677;28;20038;-79
2024/01/01 08:20:44;;;;;;;18.23;12.02;;;;;;;8.88;84.50;101069.41;10387834;28;20049;-78
2024/01/01 08:25:45;;;;;;;14.98;11.68;;;;;;;8.87;83.77;101025.34;10390541;28;20068;-79
2024/01/01 08:30:48;;;;;;;17.38;11.30;;;;;;;9.17;83.16;101050.84;10394227;28;20038;-79
2024/01/01 08:35:53;;;;;;;18.77;11.27;;;;;;;9.30;82.19;101039.94;10389223;28;20470;-77
2024/01/01 08:40:53;;;;;;;14.95;11.43;;;;;;;9.50;81.58;101054.00;10387329;28;20045;-74
2024/01/01 08:45:54;;;;;;;15.98;11.05;;;;;;;9.33;81.12;101021.09;10389000;28;20045;-75
2024/01/01 08:50:55;;;;;;;18.10;11.27;;;;;;;9.73;80.66;101035.94;10389358;28;20182;-74
2024/01/01 08:55:56;;;;;;;16.52;11.45;;;;;;;9.59;79.65;100987.66;10404638;28;20139;-73
2024/01/01 09:00:57;;;;;;;13.25;10.38;;;;;;;9.74;79.53;100985.34;10397831;28;20552;-73
2024/01/01 09:06:00;;;;;;;16.05;10.45;;;;;;;9.97;78.91;101020.31;10407987;28;20091;-72
2024/01/01 09:11:02;;;;;;;17.35;9.75;;;;;;;9.95;78.33;101002.84;10418280;28;20053;-72
2024/01/01 09:16:03;;;;;;;13.20;9.35;;;;;;;9.82;77.04;100952.78;10418026;28;20091;-72
2024/01/01 09:21:04;;;;;;;13.27;9.30;;;;;;;9.96;76.67;100939.03;10415773;28;20103;-75
2024/01/01 09:26:05;;;;;;;11.70;8.23;;;;;;;10.28;75.48;100970.41;10416359;28;20047;-72
2024/01/01 09:31:06;;;;;;;12.95;8.13;;;;;;;10.20;74.95;100929.63;10417419;28;20140;-72
2024/01/01 09:36:07;;;;;;;12.20;7.75;;;;;;;10.61;73.42;100961.91;10417963;28;20060;-72
2024/01/01 09:41:13;;;;;;;13.73;8.60;;;;;;;10.76;72.56;100952.41;10416802;28;20041;-72
2024/01/01 09:46:17;;;;;;;12.60;8.32;;;;;;;10.92;73.42;100965.81;10416328;28;20037;-72
2024/01/01 09:51:18;;;;;;;11.80;7.97;;;;;;;10.92;72.66;100960.50;10416213;28;20037;-72
2024/01/01 09:56:20;;;;;;;12.40;6.95;;;;;;;10.83;72.56;100950.81;10415270;28;20452;-72
2024/01/01 10:01:20;;;;;;;9.05;6.50;;;;;;;10.92;71.76;100943.72;10416072;28;20052;-72
2024/01/01 10:06:22;;;;;;;11.90;7.75;;;;;;;11.03;71.62;100947.94;10415429;28;20037;-71
2024/01/01 10:11:22;;;;;;;12.80;7.53;;;;;;;10.65;71.13;100880.88;10414758;28;20041;-71
2024/01/01 10:16:27;;;;;;;11.80;6.20;;;;;;;11.12;69.52;100928.38;10415216;28;20038;-72
2024/01/01 10:21:28;;;;;;;;;;;;;;;11.31;68.70;100925.50;10415368;28;20052;-73
2024/01/01 10:26:29;;;;;;;8.45;4.40;;;;;;;10.95;69.81;100896.41;10413981;28;19963;-72
2024/01/01 10:31:30;;;;;;;9.38;5.03;;;;;;;11.03;69.12;100903.56;10414153;28;20087;-74
2024/01/01 10:36:32;;;;;;;6.80;3.75;;;;;;;10.72;68.26;100855.38;10412877;28;20068;-72
2024/01/01 10:41:35;;;;;;;8.85;3.90;;;;;;;11.06;66.73;100902.44;10412662;28;20045;-74
2024/01/01 10:46:39;;;;;;;5.60;3.75;;;;;;;11.17;67.04;100910.97;10413315;28;20436;-73
2024/01/01 10:52:03;;;;;;;6.25;3.28;;;;;;;11.16;64.12;100895.19;10411709;28;20140;-73
2024/01/01 10:57:22;;;;;;;4.80;3.03;;;;;;;11.16;65.97;100908.47;10411746;28;20044;-73
2024/01/01 11:02:25;;;;;;;5.85;3.08;;;;;;;10.79;65.52;100853.75;10410069;28;20048;-73
2024/01/01 11:07:52;;;;;;;6.57;3.60;;;;;;;11.15;64.55;100901.47;10410339;28;20560;-74
2024/01/01 11:12:53;;;;;;;5.90;3.45;;;;;;;10.95;65.91;100887.59;10406237;28;20045;-73
2024/01/01 11:17:53;;;;;;;4.95;2.80;;;;;;;10.74;65.69;100850.75;10412490;28;20420;-74
2024/01/01 11:22:54;;;;;;;9.38;3.42;;;;;;;10.96;65.98;100882.09;10413634;28;20383;-76
2024/01/01 11:27:55;;;;;;;7.47;3.10;;;;;;;11.00;65.84;100893.25;10412825;28;20149;-74
2024/01/01 11:33:02;;;;;;;5.55;3.10;;;;;;;10.66;65.60;100824.94;10413841;28;20047;-74
2024/01/01 11:38:03;;;;;;;4.10;1.90;;;;;;;11.00;64.36;100885.28;10413355;28;20057;-74
2024/01/01 11:43:07;;;;;;;5.28;2.00;;;;;;;10.93;61.97;100882.41;10412215;28;20072;-74
2024/01/01 11:48:09;;;;;;;;;;;;;;;11.08;62.34;100890.66;10413472;28;20124;-74
2024/01/01 11:53:09;;;;;;;3.70;1.58;;;;;;;10.81;63.08;100875.69;10413165;28;20066;-73
2024/01/01 11:58:11;;;;;;;3.20;1.30;;;;;;;10.88;62.71;100900.66;10413338;28;20045;-73
2024/01/01 12:03:12;;;;;;;2.72;1.38;;;;;;;10.48;61.62;100846.25;10412018;28;20099;-73
2024/01/01 12:08:14;;;;;;;4.72;2.00;;;;;;;10.72;61.63;100892.59;10413290;28;20082;-73
2024/01/01 12:13:14;;;;;;;3.00;1.48;;;;;;;10.57;62.21;100888.81;10412952;28;20064;-74
2024/01/01 12:18:15;;;;;;;3.40;1.25;;;;;;;10.25;62.67;100826.44;10413116;28;20508;-73
2024/01/01 12:23:21;;;;;;;3.22;1.40;;;;;;;10.52;61.94;100892.75;10411393;28;20080;-73
2024/01/01 12:28:22;;;;;;;9.30;2.03;;;;;;;10.42;62.11;100894.69;10416731;28;20037;-73
2024/01/01 12:33:23;;;;;;;5.82;1.58;;;;;;;9.95;61.71;100836.47;10419666;28;20049;-73
2024/01/01 12:38:23;;;;;;;2.97;1.38;;;;;;;10.14;61.81;100891.25;10418966;28;20092;-73
2024/01/01 12:43:24;;;;;;;2.63;1.30;;;;;;;10.05;62.07;100894.78;10418832;28;20131;-73
2024/01/01 12:48:27;;;;;;;5.90;2.60;;;;;;;9.57;62.24;100838.44;10418809;28;20040;-73
2024/01/01 12:53:28;;;;;;;22.88;13.75;;;;;;;9.59;62.48;100859.50;10417780;28;20045;-73
2024/01/01 12:58:29;;;;;;;9.57;3.78;;;;;;;9.34;62.79;100856.56;10418738;28;20037;-74
2024/01/01 13:03:29;;;;;;;18.73;10.95;;;;;;;9.52;63.32;100912.31;10417287;28;20095;-71
2024/01/01 13:08:30;;;;;;;15.95;10.10;;;;;;;8.82;63.39;100815.63;10418201;28;20128;-73
2024/01/01 13:13:33;;;;;;;8.65;3.83;;;;;;;8.90;64.15;100864.28;10402081;28;20599;-72
2024/01/01 13:18:35;;;;;;;35.10;4.65;;;;;;;8.94;64.54;100899.25;10397159;28;20130;-71
2024/01/01 13:23:36;;;;;;;19.40;3.70;;;;;;;8.69;65.62;100904.19;10400524;28;20456;-74
2024/01/01 13:28:37;;;;;;;42.42;23.95;;;;;;;8.42;66.30;100920.00;10409137;28;20102;-73
2024/01/01 13:33:39;;;;;;;34.88;21.67;;;;;;;8.06;66.78;100913.53;10416516;28;20042;-72
2024/01/01 13:38:41;;;;;;;57.53;11.27;;;;;;;7.76;67.66;100910.84;10415030;28;20092;-74
2024/01/01 13:43:42;;;;;;;32.17;8.35;;;;;;;7.54;68.54;100927.75;10413532;28;20046;-72
2024/01/01 13:48:43;;;;;;;32.85;12.70;;;;;;;7.37;68.77;100914.34;10414416;28;20060;-71
2024/01/01 13:53:45;;;;;;;61.28;19.92;;;;;;;7.12;70.31;100923.53;10409661;28;20052;-70
2024/01/01 13:58:46;;;;;;;44.63;19.65;;;;;;;6.79;71.39;100928.94;10406812;28;20041;-70
2024/01/01 14:03:47;;;;;;;366.27;207.50;;;;;;;6.37;71.61;100939.44;10401574;28;20493;-71
2024/01/01 14:08:48;;;;;;;217.50;120.85;;;;;;;6.00;73.04;100932.84;10393011;28;20038;-73
2024/01/01 14:13:49;;;;;;;167.88;85.80;;;;;;;5.94;73.25;100940.28;10395295;28;20045;-71
2024/01/01 14:18:50;;;;;;;91.75;43.05;;;;;;;5.64;73.48;100882.09;10399456;28;20069;-71
2024/01/01 14:23:51;;;;;;;250.15;119.50;;;;;;;5.56;73.48;100929.28;10392435;28;20545;-71
2024/01/01 14:28:52;;;;;;;359.65;149.32;;;;;;;5.22;75.47;100942.47;10394698;28;20401;-71
2024/01/01 14:33:53;;;;;;;263.45;104.28;;;;;;;4.74;75.63;100917.16;10390979;28;20085;-71
2024/01/01 14:38:54;;;;;;;174.65;71.47;;;;;;;4.97;76.77;100949.63;10399303;28;20108;-70
2024/01/01 14:43:55;;;;;;;149.27;59.47;;;;;;;4.95;77.06;100951.53;10393740;28;20045;-70
2024/01/01 14:48:55;;;;;;;70.28;28.67;;;;;;;4.56;78.00;100952.75;10390729;28;20037;-71
2024/01/01 14:53:58;;;;;;;88.68;33.33;;;;;;;4.41;78.19;100946.84;10393365;28;20045;-71
2024/01/01 14:58:58;;;;;;;86.68;37.42;;;;;;;4.22;79.03;100941.22;10392195;28;20038;-71
2024/01/01 15:03:59;;;;;;;60.45;22.38;;;;;;;4.25;79.23;100957.66;10393158;28;20148;-70
2024/01/01 15:09:00;;;;;;;57.22;21.05;;;;;;;4.10;80.65;100943.81;10391521;28;20030;-72
2024/01/01 15:14:01;;;;;;;64.88;25.90;;;;;;;3.69;80.44;100906.53;10392371;28;20418;-71
2024/01/01 15:19:02;;;;;;;84.18;32.83;;;;;;;3.41;81.02;100906.72;10392073;28;20449;-71
2024/01/01 15:24:03;;;;;;;71.63;25.75;;;;;;;3.51;81.96;100941.06;10395648;28;20042;-71
2024/01/01 15:29:04;;;;;;;65.25;24.40;;;;;;;3.70;82.44;100960.75;10402285;28;20069;-71
2024/01/01 15:34:04;;;;;;;62.25;26.80;;;;;;;3.53;82.64;100960.19;10395143;28;20080;-71
2024/01/01 15:39:06;;;;;;;85.18;30.10;;;;;;;3.34;83.40;100967.66;10399233;28;20049;-71
2024/01/01 15:44:07;;;;;;;65.70;21.73;;;;;;;3.25;83.08;100956.00;10396273;28;20049;-71
2024/01/01 15:49:08;;;;;;;77.93;29.60;;;;;;;3.14;83.91;100967.25;10394013;28;20489;-72
2024/01/01 15:54:09;;;;;;;56.72;22.58;;;;;;;2.76;84.57;100938.34;10391781;28;20037;-70
2024/01/01 15:59:09;;;;;;;81.28;33.30;;;;;;;2.92;84.87;100949.47;10409545;28;20144;-71
2024/01/01 16:04:10;;;;;;;91.10;33.78;;;;;;;2.63;84.35;100901.63;10420561;28;20045;-71
2024/01/01 16:09:11;;;;;;;79.05;25.98;;;;;;;2.83;84.93;100947.47;10419938;28;20425;-72
2024/01/01 16:14:12;;;;;;;76.70;32.42;;;;;;;2.50;85.82;100953.19;10421228;28;20040;-71
2024/01/01 16:19:13;;;;;;;53.75;23.13;;;;;;;2.52;85.89;100953.94;10420513;28;20041;-71
2024/01/01 16:24:14;;;;;;;62.03;23.10;;;;;;;2.52;86.18;100953.94;10420542;28;20493;-71
2024/01/01 16:29:15;;;;;;;71.63;27.60;;;;;;;2.10;86.98;100915.63;10419792;28;20034;-71
2024/01/01 16:34:15;;;;;;;62.13;22.17;;;;;;;2.36;86.48;100963.72;10421189;28;20502;-71
2024/01/01 16:39:16;;;;;;;53.17;21.02;;;;;;;2.07;86.15;100921.91;10420837;28;20057;-75
2024/01/01 16:44:17;;;;;;;60.95;23.08;;;;;;;2.10;87.36;100939.22;10418912;28;20577;-72
2024/01/01 16:49:18;;;;;;;69.57;23.88;;;;;;;2.00;87.22;100925.84;10418981;28;20041;-72
2024/01/01 16:54:19;;;;;;;58.55;20.65;;;;;;;2.03;88.09;100923.91;10420033;28;20040;-72
2024/01/01 16:59:19;;;;;;;57.08;22.58;;;;;;;2.08;88.50;100928.81;10419363;28;20092;-71
2024/01/01 17:04:20;;;;;;;60.33;22.90;;;;;;;2.03;88.76;100936.13;10415956;28;20132;-71
2024/01/01 17:09:21;;;;;;;50.15;21.92;;;;;;;1.46;88.98;100855.09;10406812;28;20049;-70
2024/01/01 17:14:22;;;;;;;51.58;20.45;;;;;;;1.67;89.29;100905.28;10417721;28;20041;-71
2024/01/01 17:19:23;;;;;;;45.65;18.67;;;;;;;1.77;88.78;100928.19;10413854;28;20044;-72
2024/01/01 17:24:23;;;;;;;63.10;21.02;;;;;;;1.67;88.91;100905.28;10416537;28;20041;-72
2024/01/01 17:29:26;;;;;;;55.60;18.48;;;;;;;1.67;89.24;100916.59;10411387;28;20128;-72
2024/01/01 17:34:27;;;;;;;51.25;19.88;;;;;;;1.62;89.19;100902.97;10417389;28;20501;-72
2024/01/01 17:39:28;;;;;;;48.70;18.40;;;;;;;1.68;89.05;100902.56;10418864;28;20061;-71
2024/01/01 17:44:29;;;;;;;47.58;18.83;;;;;;;1.70;88.95;100908.53;10417876;28;20046;-71
2024/01/01 17:49:32;;;;;;;44.67;19.80;;;;;;;1.52;89.45;100896.59;10417527;28;20496;-71
2024/01/01 17:54:33;;;;;;;76.67;27.30;;;;;;;1.41;88.57;100899.03;10416779;28;20040;-71
2024/01/01 17:59:34;;;;;;;63.03;22.35;;;;;;;1.23;89.90;100904.50;10416400;28;20041;-71
2024/01/01 18:04:35;;;;;;;57.72;20.58;;;;;;;0.86;89.90;100837.88;10415490;28;20092;-72
2024/01/01 18:09:36;;;;;;;52.42;19.42;;;;;;;1.23;90.38;100893.19;10416930;28;20057;-71
2024/01/01 18:14:37;;;;;;;50.55;23.08;;;;;;;1.15;90.83;100896.28;10416363;28;20501;-72
2024/01/01 18:19:37;;;;;;;59.75;22.92;;;;;;;0.96;91.28;100864.31;10416200;28;20091;-71
2024/01/01 18:24:41;;;;;;;40.90;20.08;;;;;;;1.00;91.57;100871.06;10415764;28;20433;-70
2024/01/01 18:29:42;;;;;;;42.60;18.73;;;;;;;1.00;91.74;100876.28;10416665;28;20037;-70
2024/01/01 18:34:43;;;;;;;46.25;22.20;;;;;;;0.96;91.69;100864.31;10415027;28;20071;-70
2024/01/01 18:39:45;;;;;;;60.42;24.08;;;;;;;0.94;91.90;100874.88;10415817;28;20079;-71
2024/01/01 18:44:46;;;;;;;41.78;20.27;;;;;;;0.85;91.98;100871.03;10415256;28;20045;-71
2024/01/01 18:49:46;;;;;;;39.53;18.23;;;;;;;0.84;92.28;100874.59;10414952;28;20497;-74
2024/01/01 18:54:47;;;;;;;32.17;15.05;;;;;;;0.74;92.57;100863.00;10413119;28;20087;-72
2024/01/01 18:59:49;;;;;;;32.45;14.82;;;;;;;0.68;92.77;100852.91;10415152;28;20030;-72
2024/01/01 19:04:50;;;;;;;35.22;13.65;;;;;;;0.44;92.57;100805.53;10414595;28;20132;-70
2024/01/01 19:09:50;;;;;;;25.33;14.25;;;;;;;0.75;92.78;100845.53;10414655;28;20128;-72
2024/01/01 19:14:53;;;;;;;32.53;15.52;;;;;;;0.61;92.86;100843.75;10413347;28;20052;-71
2024/01/01 19:19:54;;;;;;;33.28;15.57;;;;;;;0.49;93.17;100837.47;10414030;28;20052;-71
2024/01/01 19:24:56;;;;;;;22.95;11.98;;;;;;;0.16;92.81;100781.06;10413835;28;20048;-71
2024/01/01 19:29:58;;;;;;;33.53;12.80;;;;;;;0.36;93.62;100820.84;10411615;28;20045;-72
2024/01/01 19:34:59;;;;;;;25.33;11.57;;;;;;;0.46;93.40;100835.06;10412820;28;20051;-72
2024/01/01 19:40:00;;;;;;;37.05;11.15;;;;;;;0.33;93.45;100813.16;10412671;28;20140;-70
2024/01/01 19:45:02;;;;;;;24.08;9.60;;;;;;;0.31;94.14;100822.91;10412469;28;20056;-69
2024/01/01 19:50:03;;;;;;;23.13;8.43;;;;;;;0.25;94.15;100831.94;10411613;28;20037;-70
2024/01/01 19:55:05;;;;;;;18.15;8.82;;;;;;;0.17;94.58;100819.31;10413418;28;20124;-73
2024/01/01 20:00:06;;;;;;;24.98;12.18;;;;;;;0.15;94.69;100836.00;10413346;28;20076;-70
2024/01/01 20:05:07;;;;;;;19.00;9.60;;;;;;;-0.34;94.65;100766.56;10408134;28;20132;-73
2024/01/01 20:10:08;;;;;;;20.98;9.75;;;;;;;0.08;94.65;100835.50;10405993;28;20470;-70
2024/01/01 20:15:10;;;;;;;35.40;13.73;;;;;;;0.13;94.55;100819.59;10372091;28;20046;-71
2024/01/01 20:20:11;;;;;;;33.97;16.13;;;;;;;0.06;94.41;100813.03;10376604;28;20083;-72
2024/01/01 20:25:12;;;;;;;35.25;14.40;;;;;;;0.06;94.56;100805.19;10411718;28;20076;-72
2024/01/01 20:30:12;;;;;;;34.13;13.30;;;;;;;-0.08;95.16;100779.88;10411661;28;20064;-72
2024/01/01 20:35:13;;;;;;;27.25;11.23;;;;;;;0.13;94.47;100788.25;10411735;28;20037;-72
2024/01/01 20:40:14;;;;;;;28.73;11.05;;;;;;;0.18;94.31;100791.41;10412517;28;20078;-72
2024/01/01 20:45:15;;;;;;;24.90;9.52;;;;;;;0.01;94.47;100760.22;10410749;28;20544;-72
2024/01/01 20:50:16;;;;;;;26.83;9.80;;;;;;;0.03;94.45;100787.94;10418514;28;20042;-72
2024/01/01 20:55:17;;;;;;;22.17;10.15;;;;;;;-0.18;94.57;100784.81;10420255;28;20135;-72
2024/01/01 21:00:18;;;;;;;21.73;9.27;;;;;;;-0.26;95.49;100772.19;10418920;28;20045;-72
2024/01/01 21:05:22;;;;;;;18.80;9.00;;;;;;;-0.37;95.63;100756.28;10418601;28;20517;-72
2024/01/01 21:10:22;;;;;;;19.33;7.97;;;;;;;-0.28;95.71;100773.19;10419096;28;20044;-72
2024/01/01 21:15:24;;;;;;;14.52;7.82;;;;;;;-0.69;95.65;100716.34;10418108;28;20752;-72
2024/01/01 21:20:25;;;;;;;13.75;7.13;;;;;;;-0.44;96.12;100773.25;10418462;28;20172;-72
2024/01/01 21:25:26;;;;;;;16.27;8.25;;;;;;;-0.75;96.50;100703.66;10418858;28;20568;-72
2024/01/01 21:30:27;;;;;;;18.23;8.35;;;;;;;-0.53;96.61;100761.53;10418108;28;20099;-72
2024/01/01 21:35:27;;;;;;;18.73;9.40;;;;;;;-0.47;96.11;100753.38;10417695;28;20053;-72
2024/01/01 21:40:28;;;;;;;35.80;9.20;;;;;;;-0.37;97.18;100750.22;10417338;28;20038;-72
2024/01/01 21:45:29;;;;;;;18.75;11.13;;;;;;;-0.39;96.76;100765.13;10417978;28;20501;-72
2024/01/01 21:50:31;;;;;;;19.35;10.35;;;;;;;-0.60;97.01;100723.69;10417303;28;20572;-72
2024/01/01 21:55:34;;;;;;;21.52;9.93;;;;;;;-0.72;96.62;100704.34;10416366;28;20485;-71
2024/01/01 22:00:35;;;;;;;19.73;10.80;;;;;;;-0.51;96.69;100743.19;10416742;28;20128;-72
2024/01/01 22:05:36;;;;;;;23.02;11.80;;;;;;;-0.48;97.67;100753.44;10416323;28;20065;-74
2024/01/01 22:10:37;;;;;;;23.50;12.00;;;;;;;-0.48;97.86;100759.53;10416284;28;20069;-72
2024/01/01 22:15:38;;;;;;;25.13;11.98;;;;;;;-0.57;97.66;100733.94;10417077;28;20088;-72
2024/01/01 22:20:39;;;;;;;16.55;9.75;;;;;;;-0.52;98.01;100741.50;10415705;28;20037;-72
2024/01/01 22:25:40;;;;;;;24.02;10.10;;;;;;;-0.77;97.82;100708.97;10415578;28;20132;-72
2024/01/01 22:30:40;;;;;;;18.13;9.68;;;;;;;-0.92;97.94;100681.16;10416686;28;20136;-72
2024/01/01 22:35:41;;;;;;;22.23;9.48;;;;;;;-0.56;98.16;100734.78;10415488;28;20053;-72
2024/01/01 22:40:42;;;;;;;16.17;9.02;;;;;;;-0.53;97.66;100742.44;10415433;28;20128;-72
2024/01/01 22:45:43;;;;;;;16.88;7.75;;;;;;;-1.03;97.55;100691.34;10413805;28;20052;-72
2024/01/01 22:50:44;;;;;;;15.68;7.30;;;;;;;-0.89;97.96;100742.75;10415371;28;20551;-72